createdAt,value
2017-08-19T00:01:22.697Z,9.53
2017-08-19T00:03:50.214Z,3.33
2017-08-19T00:06:17.778Z,4.57
2017-08-19T00:08:45.302Z,6.53
2017-08-19T00:11:12.800Z,5.67
2017-08-19T00:13:40.352Z,5.87
2017-08-19T00:16:07.851Z,11.03
2017-08-19T00:18:35.360Z,6.87
2017-08-19T00:21:02.892Z,7.70
2017-08-19T00:23:30.400Z,6.17
2017-08-19T00:25:58.686Z,3.83
2017-08-19T00:28:26.994Z,10.77
2017-08-19T00:30:54.563Z,8.33
2017-08-19T00:33:22.060Z,8.57
2017-08-19T00:35:49.596Z,12.80
2017-08-19T00:38:17.122Z,5.67
2017-08-19T00:40:44.643Z,14.83
2017-08-19T00:43:12.186Z,8.40
2017-08-19T00:45:39.683Z,8.33
2017-08-19T00:48:07.274Z,8.77
2017-08-19T00:50:34.811Z,17.23
2017-08-19T00:53:02.325Z,8.90
2017-08-19T00:55:29.850Z,13.00
2017-08-19T00:57:57.384Z,8.57
2017-08-19T01:00:24.968Z,6.00
2017-08-19T01:02:52.494Z,11.30
2017-08-19T01:05:20.791Z,13.87
2017-08-19T01:07:48.310Z,18.13
2017-08-19T01:10:15.830Z,13.00
2017-08-19T01:12:43.399Z,10.60
2017-08-19T01:15:10.917Z,17.60
2017-08-19T01:17:38.497Z,11.33
2017-08-19T01:20:06.056Z,8.90
2017-08-19T01:22:33.578Z,12.47
2017-08-19T01:25:13.980Z,19.50
2017-08-19T01:27:41.493Z,6.23
2017-08-19T01:30:09.839Z,11.97
2017-08-19T01:32:38.136Z,13.60
2017-08-19T01:35:05.639Z,14.43
2017-08-19T01:37:33.158Z,15.03
2017-08-19T01:40:00.718Z,12.47
2017-08-19T01:42:28.220Z,12.73
2017-08-19T01:44:55.727Z,14.37
2017-08-19T01:47:23.281Z,20.57
2017-08-19T01:49:50.782Z,11.33
2017-08-19T01:52:18.298Z,27.57
2017-08-19T01:54:45.841Z,14.07
2017-08-19T01:57:14.130Z,28.33
2017-08-19T01:59:41.717Z,19.90
2017-08-19T02:02:09.239Z,13.33
2017-08-19T02:04:37.531Z,18.57
2017-08-19T02:07:05.112Z,14.90
2017-08-19T02:09:32.662Z,20.00
2017-08-19T02:12:00.229Z,17.60
2017-08-19T02:14:27.732Z,12.17
2017-08-19T02:16:55.271Z,11.63
2017-08-19T02:19:22.790Z,18.07
2017-08-19T02:21:50.293Z,15.73
2017-08-19T02:24:17.942Z,12.60
2017-08-19T02:26:45.459Z,16.83
2017-08-19T02:29:13.043Z,17.00
2017-08-19T02:31:40.704Z,15.77
2017-08-19T02:34:08.221Z,22.93
2017-08-19T02:36:36.514Z,16.53
2017-08-19T02:39:04.062Z,13.07
2017-08-19T02:41:32.332Z,11.13
2017-08-19T02:44:00.605Z,13.20
2017-08-19T02:46:28.922Z,12.73
2017-08-19T02:48:56.428Z,13.27
2017-08-19T02:51:23.941Z,24.03
2017-08-19T02:53:51.491Z,11.93
2017-08-19T02:56:18.996Z,20.43
2017-08-19T02:58:46.522Z,19.20
2017-08-19T03:01:14.070Z,29.60
2017-08-19T03:03:41.594Z,14.83
2017-08-19T03:06:09.867Z,13.83
2017-08-19T03:08:38.289Z,21.17
2017-08-19T03:11:05.795Z,21.30
2017-08-19T03:13:33.408Z,14.87
2017-08-19T03:16:00.964Z,15.57
2017-08-19T03:18:28.464Z,19.47
2017-08-19T03:20:55.986Z,18.03
2017-08-19T03:23:23.511Z,16.20
2017-08-19T03:25:51.017Z,20.60
2017-08-19T03:28:18.515Z,16.43
2017-08-19T03:30:46.832Z,20.57
2017-08-19T03:33:14.355Z,19.33
2017-08-19T03:35:42.624Z,19.10
2017-08-19T03:38:10.943Z,21.43
2017-08-19T03:40:38.470Z,15.63
2017-08-19T03:43:06.753Z,15.80
2017-08-19T03:45:34.290Z,22.13
2017-08-19T03:48:02.574Z,24.10
2017-08-19T03:50:30.844Z,12.43
2017-08-19T03:52:59.148Z,25.73
2017-08-19T03:55:26.676Z,19.40
2017-08-19T03:57:54.943Z,18.83
2017-08-19T04:00:22.485Z,18.60
2017-08-19T04:02:50.002Z,26.53
2017-08-19T04:05:17.511Z,17.50
2017-08-19T04:07:45.039Z,12.43
2017-08-19T04:10:12.568Z,17.53
2017-08-19T04:12:40.081Z,19.40
2017-08-19T04:15:07.648Z,16.60
2017-08-19T04:17:35.170Z,23.43
2017-08-19T04:20:03.750Z,12.00
2017-08-19T04:22:31.296Z,28.33
2017-08-19T04:24:58.796Z,17.80
2017-08-19T04:27:26.338Z,24.20
2017-08-19T04:29:53.885Z,12.00
2017-08-19T04:32:21.418Z,19.90
2017-08-19T04:34:48.920Z,19.30
2017-08-19T04:37:16.463Z,25.93
2017-08-19T04:39:43.968Z,26.90
2017-08-19T04:42:11.475Z,14.47
2017-08-19T04:44:39.030Z,15.63
2017-08-19T04:47:06.554Z,15.13
2017-08-19T04:49:34.828Z,11.17
2017-08-19T04:52:03.151Z,19.23
2017-08-19T04:54:30.673Z,33.27
2017-08-19T04:56:58.935Z,16.87
2017-08-19T04:59:27.235Z,15.43
2017-08-19T05:01:54.759Z,13.30
2017-08-19T05:04:22.265Z,19.33
2017-08-19T05:06:49.795Z,16.87
2017-08-19T05:09:18.083Z,12.73
2017-08-19T05:11:45.588Z,9.77
2017-08-19T05:14:13.129Z,16.13
2017-08-19T05:16:40.640Z,10.90
2017-08-19T05:19:08.925Z,13.57
2017-08-19T05:21:37.229Z,11.13
2017-08-19T05:24:04.750Z,14.73
2017-08-19T05:26:33.069Z,10.90
2017-08-19T05:29:00.604Z,18.40
2017-08-19T05:31:28.291Z,21.87
2017-08-19T05:33:55.810Z,34.13
2017-08-19T05:36:24.123Z,18.67
2017-08-19T05:38:51.685Z,20.67
2017-08-19T05:41:19.207Z,16.47
2017-08-19T05:43:47.522Z,15.60
2017-08-19T05:46:15.042Z,9.40
2017-08-19T05:48:43.330Z,18.50
2017-08-19T05:51:11.254Z,8.33
2017-08-19T05:53:38.780Z,16.53
2017-08-19T05:56:06.288Z,10.07
2017-08-19T05:58:34.606Z,13.37
2017-08-19T06:01:02.118Z,14.13
2017-08-19T06:03:29.638Z,9.23
2017-08-19T06:05:57.178Z,8.60
2017-08-19T06:08:24.840Z,14.83
2017-08-19T06:10:52.362Z,11.43
2017-08-19T06:13:19.892Z,27.23
2017-08-19T06:15:47.529Z,13.03
2017-08-19T06:18:15.033Z,12.80
2017-08-19T06:20:42.579Z,13.67
2017-08-19T06:23:10.103Z,17.53
2017-08-19T06:25:37.627Z,29.00
2017-08-19T06:28:05.933Z,12.77
2017-08-19T06:30:33.444Z,10.93
2017-08-19T06:33:00.950Z,20.03
2017-08-19T06:35:28.483Z,17.93
2017-08-19T06:37:56.752Z,14.47
2017-08-19T06:40:25.030Z,9.70
2017-08-19T06:42:53.337Z,12.27
2017-08-19T06:45:20.853Z,8.43
2017-08-19T06:47:48.361Z,12.33
2017-08-19T06:50:15.894Z,14.57
2017-08-19T06:52:43.393Z,18.40
2017-08-19T06:55:10.920Z,17.67
2017-08-19T06:57:38.494Z,15.77
2017-08-19T07:00:05.995Z,16.63
2017-08-19T07:02:33.510Z,12.03
2017-08-19T07:05:01.039Z,13.60
2017-08-19T07:07:28.544Z,11.37
2017-08-19T07:09:56.084Z,12.97
2017-08-19T07:12:23.630Z,15.07
2017-08-19T07:14:51.203Z,5.03
2017-08-19T07:17:18.877Z,13.83
2017-08-19T07:19:46.414Z,17.97
2017-08-19T07:22:13.925Z,13.30
2017-08-19T07:24:41.530Z,19.90
2017-08-19T07:27:09.153Z,12.10
2017-08-19T07:29:36.708Z,13.80
2017-08-19T07:32:04.425Z,12.73
2017-08-19T07:34:31.962Z,8.23
2017-08-19T07:36:59.460Z,4.87
2017-08-19T07:39:27.428Z,10.23
2017-08-19T07:41:54.970Z,18.63
2017-08-19T07:44:22.486Z,23.20
2017-08-19T07:46:50.766Z,8.70
2017-08-19T07:49:19.075Z,9.10
2017-08-19T07:51:46.598Z,7.00
2017-08-19T07:54:14.107Z,11.23
2017-08-19T07:56:41.636Z,12.63
2017-08-19T07:59:09.407Z,10.27
2017-08-19T08:01:36.926Z,11.03
2017-08-19T08:04:04.479Z,17.00
2017-08-19T08:06:31.999Z,11.53
2017-08-19T08:08:59.551Z,6.93
2017-08-19T08:11:27.102Z,9.83
2017-08-19T08:13:54.671Z,10.43
2017-08-19T08:16:22.194Z,12.40
2017-08-19T08:18:50.480Z,8.30
2017-08-19T08:21:17.980Z,11.63
2017-08-19T08:23:45.482Z,4.97
2017-08-19T08:26:13.776Z,13.00
2017-08-19T08:28:41.275Z,11.30
2017-08-19T08:31:08.790Z,9.27
2017-08-19T08:33:36.340Z,11.17
2017-08-19T08:36:04.626Z,10.53
2017-08-19T08:38:32.137Z,10.80
2017-08-19T08:40:59.664Z,7.47
2017-08-19T08:43:27.174Z,9.67
2017-08-19T08:45:54.673Z,18.60
2017-08-19T08:48:22.209Z,7.77
2017-08-19T08:50:50.479Z,6.90
2017-08-19T08:53:18.756Z,12.00
2017-08-19T08:55:47.067Z,16.67
2017-08-19T08:58:14.582Z,7.60
2017-08-19T09:00:42.866Z,5.37
2017-08-19T09:03:11.159Z,11.63
2017-08-19T09:05:38.656Z,11.57
2017-08-19T09:08:06.157Z,11.40
2017-08-19T09:10:34.462Z,5.13
2017-08-19T09:13:01.983Z,11.87
2017-08-19T09:15:30.258Z,8.03
2017-08-19T09:17:57.864Z,7.93
2017-08-19T09:20:25.425Z,11.20
2017-08-19T09:22:52.935Z,16.50
2017-08-19T09:25:21.233Z,7.80
2017-08-19T09:27:48.744Z,7.97
2017-08-19T09:30:16.272Z,10.70
2017-08-19T09:32:43.796Z,9.97
2017-08-19T09:35:12.060Z,3.00
2017-08-19T09:37:39.551Z,7.13
2017-08-19T09:40:07.114Z,11.27
2017-08-19T09:42:34.684Z,13.17
2017-08-19T09:45:02.196Z,6.10
2017-08-19T09:47:30.510Z,9.03
2017-08-19T09:49:58.046Z,8.50
2017-08-19T09:52:26.307Z,10.30
2017-08-19T09:54:53.836Z,11.50
2017-08-19T09:57:21.331Z,13.07
2017-08-19T09:59:49.614Z,15.00
2017-08-19T10:02:17.921Z,12.00
2017-08-19T10:04:45.415Z,15.03
2017-08-19T10:07:13.048Z,12.57
2017-08-19T10:09:45.385Z,15.20
2017-08-19T10:12:13.791Z,18.47
2017-08-19T10:14:41.311Z,8.80
2017-08-19T10:17:09.625Z,11.73
2017-08-19T10:19:37.142Z,20.40
2017-08-19T10:22:05.412Z,18.40
2017-08-19T10:24:32.941Z,10.47
2017-08-19T10:27:00.449Z,10.10
2017-08-19T10:29:28.726Z,9.73
2017-08-19T10:31:57.028Z,16.07
2017-08-19T10:34:24.542Z,12.77
2017-08-19T10:36:52.834Z,10.10
2017-08-19T10:39:21.150Z,7.47
2017-08-19T10:41:48.652Z,11.27
2017-08-19T10:44:16.166Z,16.27
2017-08-19T10:46:43.714Z,12.23
2017-08-19T10:49:11.221Z,9.90
2017-08-19T10:51:38.743Z,7.23
2017-08-19T10:54:06.276Z,10.63
2017-08-19T10:56:33.790Z,17.23
2017-08-19T10:59:01.318Z,12.57
2017-08-19T11:01:28.856Z,6.23
2017-08-19T11:03:56.356Z,9.37
2017-08-19T11:06:23.847Z,5.77
2017-08-19T11:08:52.140Z,11.70
2017-08-19T11:11:19.653Z,8.83
2017-08-19T11:13:47.174Z,9.43
2017-08-19T11:16:14.731Z,9.87
2017-08-19T11:18:42.232Z,9.73
2017-08-19T11:21:09.750Z,9.37
2017-08-19T11:23:37.292Z,6.33
2017-08-19T11:26:04.866Z,8.63
2017-08-19T11:28:32.374Z,8.97
2017-08-19T11:30:59.904Z,8.00
2017-08-19T11:33:27.403Z,13.10
2017-08-19T11:35:55.660Z,4.53
2017-08-19T11:38:23.278Z,10.20
2017-08-19T11:40:50.790Z,1.80
2017-08-19T11:43:18.497Z,13.67
2017-08-19T11:45:46.038Z,8.10
2017-08-19T11:48:13.536Z,7.50
2017-08-19T11:50:41.036Z,5.03
2017-08-19T11:53:08.654Z,7.00
2017-08-19T11:55:36.191Z,15.23
2017-08-19T11:58:03.688Z,7.00
2017-08-19T12:00:31.309Z,22.63
2017-08-19T12:02:58.830Z,9.33
2017-08-19T12:05:27.105Z,8.80
2017-08-19T12:07:55.415Z,5.73
2017-08-19T12:10:22.982Z,3.10
2017-08-19T12:12:50.475Z,4.23
2017-08-19T12:15:18.099Z,3.30
2017-08-19T12:17:45.596Z,9.50
2017-08-19T12:20:13.119Z,6.00
2017-08-19T12:22:40.639Z,8.77
2017-08-19T12:25:08.895Z,3.30
2017-08-19T12:27:36.431Z,15.23
2017-08-19T12:30:03.978Z,6.20
2017-08-19T12:32:31.471Z,5.10
2017-08-19T12:34:59.741Z,4.43
2017-08-19T12:37:27.360Z,6.50
2017-08-19T12:39:54.855Z,7.60
2017-08-19T12:42:22.382Z,2.70
2017-08-19T12:44:49.932Z,3.90
2017-08-19T12:47:17.454Z,9.87
2017-08-19T12:49:45.770Z,8.53
2017-08-19T12:52:13.326Z,4.27
2017-08-19T12:54:40.838Z,6.33
2017-08-19T12:57:08.446Z,11.50
2017-08-19T12:59:35.977Z,9.90
2017-08-19T13:02:04.280Z,6.50
2017-08-19T13:04:31.798Z,3.47
2017-08-19T13:07:00.084Z,9.40
2017-08-19T13:09:28.392Z,8.67
2017-08-19T13:11:55.896Z,5.23
2017-08-19T13:14:23.438Z,6.83
2017-08-19T13:16:50.962Z,13.67
2017-08-19T13:19:18.472Z,5.30
2017-08-19T13:21:46.000Z,9.90
2017-08-19T13:24:13.501Z,4.40
2017-08-19T13:26:41.790Z,4.90
2017-08-19T13:29:10.088Z,2.53
2017-08-19T13:31:37.597Z,4.30
2017-08-19T13:34:05.113Z,9.63
2017-08-19T13:36:32.639Z,7.57
2017-08-19T13:39:00.914Z,3.50
2017-08-19T13:41:29.198Z,11.03
2017-08-19T13:43:56.750Z,4.87
2017-08-19T13:46:25.007Z,9.17
2017-08-19T13:48:52.524Z,5.70
2017-08-19T13:51:20.040Z,7.53
2017-08-19T13:53:48.349Z,6.20
2017-08-19T13:56:15.877Z,4.73
2017-08-19T13:58:44.137Z,3.57
2017-08-19T14:01:12.417Z,6.33
2017-08-19T14:03:40.713Z,5.07
2017-08-19T14:06:08.294Z,4.97
2017-08-19T14:08:35.834Z,4.53
2017-08-19T14:11:03.414Z,7.67
2017-08-19T14:13:30.958Z,5.90
2017-08-19T14:15:58.532Z,3.17
2017-08-19T14:18:26.047Z,4.33
2017-08-19T14:20:54.308Z,6.83
2017-08-19T14:23:21.836Z,5.40
2017-08-19T14:25:49.327Z,6.03
2017-08-19T14:28:16.839Z,9.10
2017-08-19T14:30:44.356Z,3.70
2017-08-19T14:33:12.639Z,5.60
2017-08-19T14:35:40.927Z,6.63
2017-08-19T14:38:08.510Z,11.30
2017-08-19T14:40:36.042Z,6.07
2017-08-19T14:43:03.629Z,8.47
2017-08-19T14:45:31.166Z,4.77
2017-08-19T14:47:58.664Z,5.30
2017-08-19T14:50:26.174Z,3.80
2017-08-19T14:52:54.482Z,5.53
2017-08-19T14:55:22.037Z,5.80
2017-08-19T14:57:49.554Z,9.00
2017-08-19T15:00:17.848Z,2.90
2017-08-19T15:02:45.344Z,9.47
2017-08-19T15:05:12.845Z,6.33
2017-08-19T15:07:41.152Z,4.67
2017-08-19T15:10:08.947Z,8.87
2017-08-19T15:12:36.451Z,5.23
2017-08-19T15:15:04.862Z,5.50
2017-08-19T15:17:32.378Z,6.70
2017-08-19T15:20:00.691Z,13.20
2017-08-19T15:22:28.211Z,2.87
2017-08-19T15:24:55.718Z,5.30
2017-08-19T15:27:23.232Z,3.97
2017-08-19T15:29:51.547Z,5.10
2017-08-19T15:32:19.114Z,4.57
2017-08-19T15:34:46.611Z,3.57
2017-08-19T15:37:14.131Z,5.80
2017-08-19T15:39:41.643Z,8.60
2017-08-19T15:42:09.908Z,4.93
2017-08-19T15:44:37.439Z,4.40
2017-08-19T15:47:04.935Z,7.13
2017-08-19T15:49:33.209Z,4.10
2017-08-19T15:52:01.529Z,2.20
2017-08-19T15:54:29.032Z,8.20
2017-08-19T15:56:56.546Z,2.90
2017-08-19T15:59:24.094Z,5.43
2017-08-19T16:01:51.611Z,9.40
2017-08-19T16:04:19.108Z,3.20
2017-08-19T16:06:46.787Z,7.60
2017-08-19T16:09:14.298Z,6.57
2017-08-19T16:11:42.560Z,6.27
2017-08-19T16:14:10.080Z,4.63
2017-08-19T16:16:37.580Z,10.33
2017-08-19T16:19:05.123Z,9.37
2017-08-19T16:21:32.650Z,4.73
2017-08-19T16:24:00.161Z,6.10
2017-08-19T16:26:27.706Z,6.27
2017-08-19T16:28:55.205Z,5.47
2017-08-19T16:31:22.714Z,4.40
2017-08-19T16:33:50.254Z,11.00
2017-08-19T16:36:17.747Z,8.97
2017-08-19T16:38:45.290Z,4.57
2017-08-19T16:41:12.797Z,8.67
2017-08-19T16:43:40.306Z,5.27
2017-08-19T16:46:07.828Z,5.80
2017-08-19T16:48:36.994Z,12.10
2017-08-19T16:51:05.292Z,6.90
2017-08-19T16:53:32.789Z,6.50
2017-08-19T16:56:00.332Z,4.90
2017-08-19T16:58:27.852Z,9.10
2017-08-19T17:00:55.441Z,6.93
2017-08-19T17:03:22.991Z,5.80
2017-08-19T17:05:50.559Z,6.33
2017-08-19T17:08:18.074Z,7.70
2017-08-19T17:10:46.363Z,3.67
2017-08-19T17:13:14.641Z,7.97
2017-08-19T17:15:42.934Z,4.83
2017-08-19T17:18:10.443Z,3.33
2017-08-19T17:20:37.944Z,5.30
2017-08-19T17:23:05.519Z,2.90
2017-08-19T17:25:33.016Z,3.17
2017-08-19T17:28:00.540Z,5.57
2017-08-19T17:30:28.040Z,2.50
2017-08-19T17:32:55.533Z,6.07
2017-08-19T17:35:23.074Z,2.87
2017-08-19T17:37:51.349Z,2.80
2017-08-19T17:40:19.622Z,2.30
2017-08-19T17:42:47.907Z,2.23
2017-08-19T17:45:16.164Z,3.57
2017-08-19T17:47:43.773Z,4.80
2017-08-19T17:50:11.332Z,9.67
2017-08-19T17:52:38.850Z,5.87
2017-08-19T17:55:07.131Z,2.83
2017-08-19T17:57:35.400Z,2.43
2017-08-19T18:00:03.719Z,2.47
2017-08-19T18:02:31.243Z,4.43
2017-08-19T18:04:59.523Z,2.40
2017-08-19T18:07:27.795Z,2.87
2017-08-19T18:09:56.097Z,3.43
2017-08-19T18:12:23.597Z,2.63
2017-08-19T18:14:51.114Z,2.37
2017-08-19T18:17:18.657Z,3.67
2017-08-19T18:19:46.935Z,2.40
2017-08-19T18:22:14.431Z,5.60
2017-08-19T18:24:42.082Z,3.63
2017-08-19T18:27:09.634Z,8.93
2017-08-19T18:29:37.146Z,6.73
2017-08-19T18:32:04.682Z,4.10
2017-08-19T18:34:32.205Z,2.43
2017-08-19T18:36:59.704Z,3.90
2017-08-19T18:39:27.228Z,3.67
2017-08-19T18:41:54.719Z,3.27
2017-08-19T18:44:22.239Z,6.97
2017-08-19T18:46:49.754Z,2.20
2017-08-19T18:49:18.057Z,3.10
2017-08-19T18:51:45.574Z,10.60
2017-08-19T18:54:13.117Z,4.17
2017-08-19T18:56:40.630Z,4.90
2017-08-19T18:59:08.147Z,5.00
2017-08-19T19:01:35.672Z,3.00
2017-08-19T19:04:03.167Z,3.23
2017-08-19T19:06:30.674Z,4.77
2017-08-19T19:08:58.242Z,2.67
2017-08-19T19:11:25.739Z,3.77
2017-08-19T19:13:53.361Z,4.83
2017-08-19T19:16:20.891Z,2.67
2017-08-19T19:18:49.196Z,6.93
2017-08-19T19:21:16.756Z,3.40
2017-08-19T19:23:44.274Z,2.80
2017-08-19T19:26:12.587Z,3.10
2017-08-19T19:28:40.182Z,5.50
2017-08-19T19:31:07.680Z,6.50
2017-08-19T19:33:35.978Z,6.77
2017-08-19T19:36:03.471Z,2.93
2017-08-19T19:38:30.997Z,6.40
2017-08-19T19:40:58.514Z,3.53
2017-08-19T19:43:26.031Z,4.10
2017-08-19T19:45:53.681Z,5.50
2017-08-19T19:48:21.194Z,2.87
2017-08-19T19:50:49.516Z,4.63
2017-08-19T19:53:17.044Z,4.70
2017-08-19T19:55:45.307Z,10.50
2017-08-19T19:58:13.625Z,7.90
2017-08-19T20:00:41.148Z,15.50
2017-08-19T20:03:09.429Z,3.00
2017-08-19T20:05:37.731Z,6.00
2017-08-19T20:08:05.243Z,4.90
2017-08-19T20:10:33.530Z,5.63
2017-08-19T20:13:01.820Z,3.07
2017-08-19T20:15:29.335Z,6.70
2017-08-19T20:17:56.872Z,4.60
2017-08-19T20:20:24.364Z,5.30
2017-08-19T20:22:51.886Z,5.33
2017-08-19T20:25:19.420Z,4.13
2017-08-19T20:27:46.939Z,6.00
2017-08-19T20:30:14.495Z,4.73
2017-08-19T20:32:42.014Z,8.50
2017-08-19T20:35:09.526Z,10.50
2017-08-19T20:37:37.835Z,4.13
2017-08-19T20:40:05.341Z,3.57
2017-08-19T20:42:32.971Z,5.90
2017-08-19T20:45:00.472Z,6.47
2017-08-19T20:47:28.087Z,3.43
2017-08-19T20:49:55.592Z,5.27
2017-08-19T20:52:23.919Z,4.03
2017-08-19T20:54:51.483Z,4.50
2017-08-19T20:57:18.983Z,2.80
2017-08-19T20:59:46.599Z,3.23
2017-08-19T21:02:14.117Z,9.63
2017-08-19T21:04:42.418Z,8.50
2017-08-19T21:07:09.929Z,3.90
2017-08-19T21:09:37.456Z,3.20
2017-08-19T21:12:04.953Z,5.43
2017-08-19T21:14:32.566Z,3.57
2017-08-19T21:17:00.079Z,4.90
2017-08-19T21:19:28.349Z,3.60
2017-08-19T21:21:55.910Z,3.17
2017-08-19T21:24:24.184Z,3.60
2017-08-19T21:26:51.702Z,4.60
2017-08-19T21:29:19.251Z,5.10
2017-08-19T21:31:46.764Z,3.40
2017-08-19T21:34:15.043Z,6.90
2017-08-19T21:36:43.331Z,2.87
2017-08-19T21:39:11.614Z,3.53
2017-08-19T21:41:39.120Z,4.20
2017-08-19T21:44:06.645Z,5.30
2017-08-19T21:46:34.143Z,4.50
2017-08-19T21:49:01.669Z,3.80
2017-08-19T21:51:29.172Z,7.70
2017-08-19T21:53:56.690Z,6.77
2017-08-19T21:56:24.220Z,4.07
2017-08-19T21:58:51.724Z,5.60
2017-08-19T22:01:19.237Z,5.20
2017-08-19T22:03:46.780Z,7.00
2017-08-19T22:06:15.097Z,8.10
2017-08-19T22:08:42.655Z,8.43
2017-08-19T22:11:10.171Z,6.90
2017-08-19T22:13:38.492Z,6.93
2017-08-19T22:16:06.037Z,9.57
2017-08-19T22:18:33.611Z,8.50
2017-08-19T22:21:01.135Z,5.90
2017-08-19T22:23:29.419Z,5.47
2017-08-19T22:25:57.006Z,5.97
2017-08-19T22:28:24.558Z,5.17
2017-08-19T22:30:52.077Z,10.30
2017-08-19T22:33:20.343Z,11.33
2017-08-19T22:35:47.875Z,10.13
2017-08-19T22:38:15.376Z,7.40
2017-08-19T22:40:43.648Z,17.20
2017-08-19T22:43:11.954Z,6.77
2017-08-19T22:45:39.477Z,16.80
2017-08-19T22:48:07.790Z,17.93
2017-08-19T22:50:35.314Z,14.87
2017-08-19T22:53:03.637Z,7.30
2017-08-19T22:55:31.186Z,17.13
2017-08-19T22:57:58.757Z,10.60
2017-08-19T23:00:26.255Z,13.03
2017-08-19T23:02:53.780Z,10.77
2017-08-19T23:05:21.302Z,8.20
2017-08-19T23:07:48.845Z,8.23
2017-08-19T23:10:17.168Z,7.77
2017-08-19T23:12:44.685Z,12.93
2017-08-19T23:15:12.975Z,7.73
2017-08-19T23:17:40.475Z,10.87
2017-08-19T23:20:07.984Z,11.63
2017-08-19T23:22:36.279Z,12.23
2017-08-19T23:25:03.798Z,18.60
2017-08-19T23:27:31.304Z,14.80
2017-08-19T23:29:58.835Z,10.43
2017-08-19T23:32:27.122Z,15.37
2017-08-19T23:34:54.709Z,20.20
2017-08-19T23:37:22.262Z,16.90
2017-08-19T23:39:49.763Z,19.20
2017-08-19T23:42:17.268Z,19.83
2017-08-19T23:44:44.818Z,16.97
2017-08-19T23:47:12.335Z,17.80
2017-08-19T23:49:39.855Z,21.60
2017-08-19T23:52:07.417Z,21.40
2017-08-19T23:54:34.938Z,16.57
2017-08-19T23:57:03.222Z,15.00
2017-08-19T23:59:30.807Z,15.27
